createdAt,value
2023-01-04T00:00:15.911Z,0.00
2023-01-04T00:01:15.729Z,0.00
2023-01-04T00:02:15.831Z,0.00
2023-01-04T00:03:15.807Z,0.00
2023-01-04T00:04:15.717Z,0.00
2023-01-04T00:05:15.728Z,0.00
2023-01-04T00:06:15.723Z,0.00
2023-01-04T00:07:15.682Z,0.00
2023-01-04T00:08:15.685Z,0.00
2023-01-04T00:09:15.706Z,0.00
2023-01-04T00:10:15.641Z,0.00
2023-01-04T00:11:15.650Z,0.00
2023-01-04T00:12:15.681Z,0.00
2023-01-04T00:13:15.657Z,0.00
2023-01-04T00:14:15.628Z,0.00
2023-01-04T00:15:15.600Z,0.00
2023-01-04T00:16:15.723Z,0.00
2023-01-04T00:17:15.560Z,0.00
2023-01-04T00:18:15.620Z,0.00
2023-01-04T00:19:15.566Z,0.00
2023-01-04T00:20:15.536Z,0.00
2023-01-04T00:21:15.509Z,0.00
2023-01-04T00:22:15.530Z,0.00
2023-01-04T00:23:15.495Z,0.00
2023-01-04T00:24:15.538Z,0.00
2023-01-04T00:25:16.740Z,0.00
2023-01-04T00:26:23.446Z,0.00
2023-01-04T00:27:15.491Z,0.00
2023-01-04T00:28:15.438Z,0.00
2023-01-04T00:29:16.636Z,0.00
2023-01-04T00:30:15.444Z,0.00
2023-01-04T00:31:15.503Z,0.00
2023-01-04T00:32:15.456Z,0.00
2023-01-04T00:33:15.390Z,0.00
2023-01-04T00:34:15.441Z,0.00
2023-01-04T00:35:43.704Z,0.00
2023-01-04T00:36:16.371Z,0.00
2023-01-04T00:37:15.386Z,0.00
2023-01-04T00:38:15.352Z,0.00
2023-01-04T00:39:15.338Z,0.00
2023-01-04T00:40:15.343Z,0.00
2023-01-04T00:41:34.826Z,0.00
2023-01-04T00:42:16.297Z,0.00
2023-01-04T00:43:15.329Z,0.00
2023-01-04T00:44:15.310Z,0.00
2023-01-04T00:45:15.360Z,0.00
2023-01-04T00:46:15.352Z,0.00
2023-01-04T00:47:15.239Z,0.00
2023-01-04T00:48:15.287Z,0.00
2023-01-04T00:49:15.254Z,0.00
2023-01-04T00:50:15.253Z,0.00
2023-01-04T00:51:15.223Z,0.00
2023-01-04T00:52:15.232Z,0.00
2023-01-04T00:53:15.216Z,0.00
2023-01-04T00:54:15.224Z,0.00
2023-01-04T00:55:15.203Z,0.00
2023-01-04T00:56:15.187Z,0.00
2023-01-04T00:57:15.135Z,0.00
2023-01-04T00:58:15.139Z,0.00
2023-01-04T00:59:15.165Z,0.00
2023-01-04T01:00:15.127Z,0.00
2023-01-04T01:01:15.229Z,0.00
2023-01-04T01:02:15.243Z,0.00
2023-01-04T01:03:15.245Z,0.00
2023-01-04T01:04:15.177Z,0.00
2023-01-04T01:05:15.136Z,0.00
2023-01-04T01:06:15.122Z,0.00
2023-01-04T01:07:15.048Z,0.00
2023-01-04T01:08:15.071Z,0.00
2023-01-04T01:09:15.081Z,0.00
2023-01-04T01:10:15.005Z,0.00
2023-01-04T01:11:15.335Z,0.00
2023-01-04T01:12:14.984Z,0.00
2023-01-04T01:13:15.052Z,0.00
2023-01-04T01:14:14.987Z,0.00
2023-01-04T01:15:15.022Z,0.00
2023-01-04T01:16:15.071Z,0.00
2023-01-04T01:17:14.986Z,0.00
2023-01-04T01:18:14.950Z,0.00
2023-01-04T01:19:14.963Z,0.00
2023-01-04T01:20:14.920Z,0.00
2023-01-04T01:21:14.941Z,0.00
2023-01-04T01:22:14.917Z,0.00
2023-01-04T01:23:15.302Z,0.00
2023-01-04T01:24:14.988Z,0.00
2023-01-04T01:25:15.017Z,0.00
2023-01-04T01:26:14.931Z,0.00
2023-01-04T01:27:14.830Z,0.00
2023-01-04T01:28:14.841Z,0.00
2023-01-04T01:29:14.832Z,0.00
2023-01-04T01:30:14.831Z,0.00
2023-01-04T01:31:14.860Z,0.00
2023-01-04T01:32:15.032Z,0.00
2023-01-04T01:33:14.930Z,0.00
2023-01-04T01:34:14.832Z,0.00
2023-01-04T01:35:14.908Z,0.00
2023-01-04T01:36:14.732Z,0.00
2023-01-04T01:37:14.751Z,0.00
2023-01-04T01:38:14.708Z,0.00
2023-01-04T01:39:14.701Z,0.00
2023-01-04T01:40:14.811Z,0.00
2023-01-04T01:41:14.690Z,0.00
2023-01-04T01:42:14.737Z,0.00
2023-01-04T01:43:14.879Z,0.00
2023-01-04T01:44:14.712Z,0.00
2023-01-04T01:45:14.660Z,0.00
2023-01-04T01:46:14.773Z,0.00
2023-01-04T01:47:14.708Z,0.00
2023-01-04T01:48:14.645Z,0.00
2023-01-04T01:49:14.598Z,0.00
2023-01-04T01:50:14.632Z,0.00
2023-01-04T01:51:14.580Z,0.00
2023-01-04T01:52:14.573Z,0.00
2023-01-04T01:53:14.602Z,0.00
2023-01-04T01:54:14.554Z,0.00
2023-01-04T01:55:14.574Z,0.00
2023-01-04T01:56:14.560Z,0.00
2023-01-04T01:57:14.553Z,0.00
2023-01-04T01:58:14.533Z,0.00
2023-01-04T01:59:14.541Z,0.00
2023-01-04T02:00:14.512Z,0.00
2023-01-04T02:01:14.600Z,0.00
2023-01-04T02:02:14.616Z,0.00
2023-01-04T02:03:14.540Z,0.00
2023-01-04T02:04:19.378Z,0.00
2023-01-04T02:05:14.666Z,0.00
2023-01-04T02:06:14.454Z,0.00
2023-01-04T02:07:14.443Z,0.00
2023-01-04T02:08:14.434Z,0.00
2023-01-04T02:09:14.697Z,0.00
2023-01-04T02:10:14.588Z,0.00
2023-01-04T02:11:15.432Z,0.00
2023-01-04T02:12:14.367Z,0.00
2023-01-04T02:13:14.366Z,0.00
2023-01-04T02:14:14.366Z,0.00
2023-01-04T02:15:14.352Z,0.00
2023-01-04T02:16:14.489Z,0.00
2023-01-04T02:17:14.326Z,0.00
2023-01-04T02:18:14.369Z,0.00
2023-01-04T02:19:14.387Z,0.00
2023-01-04T02:20:14.305Z,0.00
2023-01-04T02:21:14.276Z,0.00
2023-01-04T02:22:14.280Z,0.00
2023-01-04T02:23:14.239Z,0.00
2023-01-04T02:24:14.263Z,0.00
2023-01-04T02:25:14.275Z,0.00
2023-01-04T02:26:14.217Z,0.00
2023-01-04T02:27:14.195Z,0.00
2023-01-04T02:28:14.238Z,0.00
2023-01-04T02:29:14.247Z,0.00
2023-01-04T02:30:14.217Z,0.00
2023-01-04T02:31:14.247Z,0.00
2023-01-04T02:32:14.163Z,0.00
2023-01-04T02:33:14.178Z,0.00
2023-01-04T02:34:14.178Z,0.00
2023-01-04T02:35:14.133Z,0.00
2023-01-04T02:36:14.216Z,0.00
2023-01-04T02:37:14.114Z,0.00
2023-01-04T02:38:14.097Z,0.00
2023-01-04T02:39:14.143Z,0.00
2023-01-04T02:40:14.079Z,0.00
2023-01-04T02:41:14.112Z,0.00
2023-01-04T02:42:14.109Z,0.00
2023-01-04T02:43:16.355Z,0.00
2023-01-04T02:44:14.041Z,0.00
2023-01-04T02:45:14.345Z,0.00
2023-01-04T02:46:14.040Z,0.00
2023-01-04T02:47:13.988Z,0.00
2023-01-04T02:48:14.003Z,0.00
2023-01-04T02:49:13.979Z,0.00
2023-01-04T02:50:13.994Z,0.00
2023-01-04T02:51:13.972Z,0.00
2023-01-04T02:52:14.102Z,0.00
2023-01-04T02:53:14.258Z,0.00
2023-01-04T02:54:13.918Z,0.00
2023-01-04T02:55:13.944Z,0.00
2023-01-04T02:56:14.003Z,0.00
2023-01-04T02:57:13.901Z,0.00
2023-01-04T02:58:13.911Z,0.00
2023-01-04T02:59:13.901Z,0.00
2023-01-04T03:00:13.930Z,0.00
2023-01-04T03:01:14.004Z,0.00
2023-01-04T03:02:13.968Z,0.00
2023-01-04T03:03:13.984Z,0.00
2023-01-04T03:04:13.900Z,0.00
2023-01-04T03:05:13.873Z,0.00
2023-01-04T03:06:13.806Z,0.00
2023-01-04T03:07:13.780Z,0.00
2023-01-04T03:08:13.780Z,0.00
2023-01-04T03:09:13.798Z,0.00
2023-01-04T03:10:13.763Z,0.00
2023-01-04T03:11:13.806Z,0.00
2023-01-04T03:12:13.766Z,0.00
2023-01-04T03:13:13.723Z,0.00
2023-01-04T03:14:32.573Z,0.00
2023-01-04T03:15:14.746Z,0.00
2023-01-04T03:16:13.837Z,0.00
2023-01-04T03:17:13.744Z,0.00
2023-01-04T03:18:13.733Z,0.00
2023-01-04T03:19:13.643Z,0.00
2023-01-04T03:20:13.653Z,0.00
2023-01-04T03:21:13.680Z,0.00
2023-01-04T03:22:13.643Z,0.00
2023-01-04T03:23:13.617Z,0.00
2023-01-04T03:24:13.593Z,0.00
2023-01-04T03:25:14.740Z,0.00
2023-01-04T03:26:13.592Z,0.00
2023-01-04T03:27:14.551Z,0.00
2023-01-04T03:28:13.610Z,0.00
2023-01-04T03:29:13.619Z,0.00
2023-01-04T03:30:13.530Z,0.00
2023-01-04T03:31:13.580Z,0.00
2023-01-04T03:32:13.546Z,0.00
2023-01-04T03:33:13.507Z,0.00
2023-01-04T03:34:13.551Z,0.00
2023-01-04T03:35:13.484Z,0.00
2023-01-04T03:36:13.476Z,0.00
2023-01-04T03:37:13.492Z,0.00
2023-01-04T03:38:13.485Z,0.00
2023-01-04T03:39:13.486Z,0.00
2023-01-04T03:40:13.461Z,0.00
2023-01-04T03:41:13.462Z,0.00
2023-01-04T03:42:13.417Z,0.00
2023-01-04T03:43:13.404Z,0.00
2023-01-04T03:44:13.403Z,0.00
2023-01-04T03:45:13.400Z,0.00
2023-01-04T03:46:13.541Z,0.00
2023-01-04T03:47:13.474Z,0.00
2023-01-04T03:48:13.446Z,0.00
2023-01-04T03:49:13.405Z,0.00
2023-01-04T03:50:13.346Z,0.00
2023-01-04T03:51:13.337Z,0.00
2023-01-04T03:52:13.307Z,0.00
2023-01-04T03:53:13.327Z,0.00
2023-01-04T03:54:13.313Z,0.00
2023-01-04T03:55:13.318Z,0.00
2023-01-04T03:56:13.313Z,0.00
2023-01-04T03:57:13.251Z,0.00
2023-01-04T03:58:13.280Z,0.00
2023-01-04T03:59:13.263Z,0.00
2023-01-04T04:00:13.273Z,0.00
2023-01-04T04:01:13.307Z,0.00
2023-01-04T04:02:13.364Z,0.00
2023-01-04T04:03:13.187Z,0.00
2023-01-04T04:04:13.329Z,0.00
2023-01-04T04:05:13.182Z,0.00
2023-01-04T04:06:13.201Z,0.00
2023-01-04T04:07:13.147Z,0.00
2023-01-04T04:08:13.129Z,0.00
2023-01-04T04:09:13.778Z,0.00
2023-01-04T04:10:13.145Z,0.00
2023-01-04T04:11:13.137Z,0.00
2023-01-04T04:12:13.151Z,0.00
2023-01-04T04:13:13.272Z,0.00
2023-01-04T04:14:13.097Z,0.00
2023-01-04T04:15:13.074Z,0.00
2023-01-04T04:16:13.117Z,0.00
2023-01-04T04:17:13.057Z,0.00
2023-01-04T04:18:13.051Z,0.00
2023-01-04T04:19:13.094Z,0.00
2023-01-04T04:20:13.025Z,0.00
2023-01-04T04:21:13.042Z,0.00
2023-01-04T04:22:13.053Z,0.00
2023-01-04T04:23:13.031Z,0.00
2023-01-04T04:24:12.970Z,0.00
2023-01-04T04:25:12.968Z,0.00
2023-01-04T04:26:12.955Z,0.00
2023-01-04T04:27:13.008Z,0.00
2023-01-04T04:28:12.947Z,0.00
2023-01-04T04:29:12.949Z,0.00
2023-01-04T04:30:12.914Z,0.00
2023-01-04T04:31:12.952Z,0.00
2023-01-04T04:32:12.949Z,0.00
2023-01-04T04:33:12.892Z,0.00
2023-01-04T04:34:12.884Z,0.00
2023-01-04T04:35:12.916Z,0.00
2023-01-04T04:36:12.862Z,0.00
2023-01-04T04:37:12.901Z,0.00
2023-01-04T04:38:12.822Z,0.00
2023-01-04T04:39:12.837Z,0.00
2023-01-04T04:40:12.850Z,0.00
2023-01-04T04:41:12.810Z,0.00
2023-01-04T04:42:12.853Z,0.00
2023-01-04T04:43:12.771Z,0.00
2023-01-04T04:44:12.785Z,0.00
2023-01-04T04:45:12.746Z,0.00
2023-01-04T04:46:13.261Z,0.00
2023-01-04T04:47:12.777Z,0.00
2023-01-04T04:48:12.824Z,0.00
2023-01-04T04:49:12.725Z,0.00
2023-01-04T04:50:12.698Z,0.00
2023-01-04T04:51:12.767Z,0.00
2023-01-04T04:52:12.724Z,0.00
2023-01-04T04:53:12.682Z,0.00
2023-01-04T04:54:12.776Z,0.00
2023-01-04T04:55:12.708Z,0.00
2023-01-04T04:56:12.629Z,0.00
2023-01-04T04:57:12.697Z,0.00
2023-01-04T04:58:12.647Z,0.00
2023-01-04T04:59:12.644Z,0.00
2023-01-04T05:00:12.623Z,0.00
2023-01-04T05:01:12.690Z,0.00
2023-01-04T05:02:12.774Z,0.00
2023-01-04T05:03:12.655Z,0.00
2023-01-04T05:04:12.586Z,0.00
2023-01-04T05:05:12.567Z,0.00
2023-01-04T05:06:12.563Z,0.00
2023-01-04T05:07:12.941Z,0.00
2023-01-04T05:08:12.578Z,0.00
2023-01-04T05:09:12.523Z,0.00
2023-01-04T05:10:12.529Z,0.00
2023-01-04T05:11:12.496Z,0.00
2023-01-04T05:12:12.487Z,0.00
2023-01-04T05:13:12.467Z,0.00
2023-01-04T05:14:12.498Z,0.00
2023-01-04T05:15:12.487Z,0.00
2023-01-04T05:16:12.497Z,0.00
2023-01-04T05:17:12.440Z,0.00
2023-01-04T05:18:12.439Z,0.00
2023-01-04T05:19:12.450Z,0.00
2023-01-04T05:20:12.417Z,0.00
2023-01-04T05:21:16.883Z,0.00
2023-01-04T05:22:13.354Z,0.00
2023-01-04T05:23:12.368Z,0.00
2023-01-04T05:24:12.368Z,0.00
2023-01-04T05:25:12.400Z,0.00
2023-01-04T05:26:12.333Z,0.00
2023-01-04T05:27:12.334Z,0.00
2023-01-04T05:28:12.327Z,0.00
2023-01-04T05:29:12.290Z,0.00
2023-01-04T05:30:12.378Z,0.00
2023-01-04T05:31:12.344Z,0.00
2023-01-04T05:32:12.397Z,0.00
2023-01-04T05:33:12.292Z,0.00
2023-01-04T05:34:15.831Z,0.00
2023-01-04T05:35:13.298Z,0.00
2023-01-04T05:36:12.248Z,0.00
2023-01-04T05:37:12.240Z,0.00
2023-01-04T05:38:12.224Z,0.00
2023-01-04T05:39:12.187Z,0.00
2023-01-04T05:40:12.212Z,0.00
2023-01-04T05:41:12.170Z,0.00
2023-01-04T05:42:12.203Z,0.00
2023-01-04T05:43:12.193Z,0.00
2023-01-04T05:44:12.190Z,0.00
2023-01-04T05:45:13.789Z,0.00
2023-01-04T05:46:12.208Z,0.00
2023-01-04T05:47:15.171Z,0.00
2023-01-04T05:48:12.180Z,0.00
2023-01-04T05:49:12.101Z,0.00
2023-01-04T05:50:12.161Z,0.00
2023-01-04T05:51:12.059Z,0.00
2023-01-04T05:52:12.281Z,0.00
2023-01-04T05:53:12.074Z,0.00
2023-01-04T05:54:14.492Z,0.00
2023-01-04T05:55:12.031Z,0.00
2023-01-04T05:56:12.089Z,0.00
2023-01-04T05:57:12.011Z,0.00
2023-01-04T05:58:11.996Z,0.00
2023-01-04T05:59:12.000Z,0.00
2023-01-04T06:00:12.123Z,0.00
2023-01-04T06:01:12.097Z,0.00
2023-01-04T06:02:12.050Z,0.00
2023-01-04T06:03:12.074Z,0.00
2023-01-04T06:04:12.038Z,0.00
2023-01-04T06:05:11.962Z,0.00
2023-01-04T06:06:11.914Z,0.00
2023-01-04T06:07:11.959Z,0.00
2023-01-04T06:08:11.915Z,0.00
2023-01-04T06:09:11.905Z,0.00
2023-01-04T06:10:12.052Z,0.00
2023-01-04T06:11:11.863Z,0.00
2023-01-04T06:12:12.024Z,0.00
2023-01-04T06:13:11.896Z,0.00
2023-01-04T06:14:11.845Z,0.00
2023-01-04T06:15:11.840Z,0.00
2023-01-04T06:16:11.864Z,0.00
2023-01-04T06:17:11.959Z,0.00
2023-01-04T06:18:13.735Z,0.00
2023-01-04T06:19:11.793Z,0.00
2023-01-04T06:20:11.780Z,0.00
2023-01-04T06:21:11.777Z,0.00
2023-01-04T06:22:11.997Z,0.00
2023-01-04T06:23:11.726Z,1.00
2023-01-04T06:24:11.953Z,0.00
2023-01-04T06:25:11.676Z,1.00
2023-01-04T06:26:11.739Z,0.00
2023-01-04T06:27:11.731Z,0.00
2023-01-04T06:28:11.712Z,0.00
2023-01-04T06:29:11.708Z,0.00
2023-01-04T06:30:11.665Z,0.00
2023-01-04T06:31:11.682Z,0.00
2023-01-04T06:32:11.704Z,0.00
2023-01-04T06:33:11.661Z,0.00
2023-01-04T06:34:11.663Z,0.00
2023-01-04T06:35:11.585Z,1.00
2023-01-04T06:36:20.079Z,1.00
2023-01-04T06:37:13.727Z,1.00
2023-01-04T06:38:11.854Z,0.00
2023-01-04T06:39:11.734Z,0.00
2023-01-04T06:40:11.765Z,0.00
2023-01-04T06:41:11.532Z,2.00
2023-01-04T06:42:11.548Z,1.00
2023-01-04T06:43:11.600Z,1.00
2023-01-04T06:44:11.479Z,1.00
2023-01-04T06:45:11.538Z,0.00
2023-01-04T06:46:11.520Z,2.00
2023-01-04T06:47:11.492Z,1.00
2023-01-04T06:48:11.449Z,1.00
2023-01-04T06:49:12.454Z,1.00
2023-01-04T06:50:11.486Z,2.00
2023-01-04T06:51:11.427Z,2.00
2023-01-04T06:52:11.620Z,5.00
2023-01-04T06:53:11.429Z,5.00
2023-01-04T06:54:12.051Z,2.00
2023-01-04T06:55:11.362Z,1.00
2023-01-04T06:56:12.025Z,2.00
2023-01-04T06:57:11.330Z,4.00
2023-01-04T06:58:12.085Z,4.00
2023-01-04T06:59:11.359Z,5.00
2023-01-04T07:00:11.542Z,4.00
2023-01-04T07:01:11.378Z,7.00
2023-01-04T07:02:11.528Z,8.00
2023-01-04T07:03:14.114Z,10.00
2023-01-04T07:04:11.591Z,14.00
2023-01-04T07:05:11.242Z,18.00
2023-01-04T07:06:11.411Z,23.00
2023-01-04T07:07:11.268Z,30.00
2023-01-04T07:08:11.418Z,35.00
2023-01-04T07:09:11.304Z,41.00
2023-01-04T07:10:11.278Z,47.00
2023-01-04T07:11:11.180Z,52.00
2023-01-04T07:12:11.255Z,57.00
2023-01-04T07:13:11.225Z,62.00
2023-01-04T07:14:11.960Z,67.00
2023-01-04T07:15:38.369Z,72.00
2023-01-04T07:16:12.182Z,78.00
2023-01-04T07:17:11.249Z,83.00
2023-01-04T07:18:11.140Z,85.00
2023-01-04T07:19:11.310Z,83.00
2023-01-04T07:20:11.161Z,74.00
2023-01-04T07:21:11.163Z,68.00
2023-01-04T07:22:11.071Z,49.00
2023-01-04T07:23:11.082Z,41.00
2023-01-04T07:24:11.053Z,40.00
2023-01-04T07:25:11.033Z,40.00
2023-01-04T07:26:11.099Z,68.00
2023-01-04T07:27:11.025Z,75.00
2023-01-04T07:28:11.075Z,72.00
2023-01-04T07:29:11.017Z,62.00
2023-01-04T07:30:11.054Z,57.00
2023-01-04T07:31:11.095Z,60.00
2023-01-04T07:32:14.040Z,61.00
2023-01-04T07:33:11.007Z,65.00
2023-01-04T07:34:10.978Z,64.00
2023-01-04T07:35:10.995Z,67.00
2023-01-04T07:36:10.954Z,79.00
2023-01-04T07:37:10.929Z,78.00
2023-01-04T07:38:10.936Z,84.00
2023-01-04T07:39:10.951Z,84.00
2023-01-04T07:40:10.889Z,95.00
2023-01-04T07:41:10.935Z,119.00
2023-01-04T07:42:10.909Z,128.00
2023-01-04T07:43:10.858Z,134.00
2023-01-04T07:44:10.870Z,131.00
2023-01-04T07:45:10.852Z,131.00
2023-01-04T07:46:10.876Z,133.00
2023-01-04T07:47:10.814Z,132.00
2023-01-04T07:48:10.812Z,134.00
2023-01-04T07:49:16.622Z,136.00
2023-01-04T07:50:12.002Z,128.00
2023-01-04T07:51:10.789Z,130.00
2023-01-04T07:52:10.809Z,130.00
2023-01-04T07:53:10.771Z,122.00
2023-01-04T07:54:10.798Z,118.00
2023-01-04T07:55:10.797Z,109.00
2023-01-04T07:56:16.751Z,100.00
2023-01-04T07:57:11.752Z,109.00
2023-01-04T07:58:10.796Z,119.00
2023-01-04T07:59:10.688Z,130.00
2023-01-04T08:00:10.791Z,135.00
2023-01-04T08:01:10.929Z,135.00
2023-01-04T08:02:10.806Z,145.00
2023-01-04T08:03:10.669Z,159.00
2023-01-04T08:04:10.743Z,166.00
2023-01-04T08:05:10.689Z,168.00
2023-01-04T08:06:10.647Z,159.00
2023-01-04T08:07:10.613Z,152.00
2023-01-04T08:08:10.610Z,152.00
2023-01-04T08:09:10.617Z,153.00
2023-01-04T08:10:10.568Z,159.00
2023-01-04T08:11:10.562Z,171.00
2023-01-04T08:12:10.573Z,179.00
2023-01-04T08:13:10.584Z,184.00
2023-01-04T08:14:10.577Z,198.00
2023-01-04T08:15:10.553Z,216.00
2023-01-04T08:16:10.747Z,227.00
2023-01-04T08:17:10.505Z,248.00
2023-01-04T08:18:11.796Z,270.00
2023-01-04T08:19:10.513Z,280.00
2023-01-04T08:20:10.531Z,265.00
2023-01-04T08:21:10.460Z,266.00
2023-01-04T08:22:10.499Z,280.00
2023-01-04T08:23:10.471Z,305.00
2023-01-04T08:24:10.468Z,313.00
2023-01-04T08:25:10.490Z,302.00
2023-01-04T08:26:10.440Z,282.00
2023-01-04T08:27:10.441Z,274.00
2023-01-04T08:28:10.446Z,278.00
2023-01-04T08:29:10.487Z,244.00
2023-01-04T08:30:10.362Z,241.00
2023-01-04T08:31:10.439Z,251.00
2023-01-04T08:32:10.352Z,260.00
2023-01-04T08:33:10.358Z,271.00
2023-01-04T08:34:10.356Z,285.00
2023-01-04T08:35:10.357Z,296.00
2023-01-04T08:36:10.326Z,309.00
2023-01-04T08:37:10.364Z,327.00
2023-01-04T08:38:48.612Z,344.00
2023-01-04T08:39:11.301Z,369.00
2023-01-04T08:40:10.304Z,334.00
2023-01-04T08:41:39.314Z,327.00
2023-01-04T08:42:22.013Z,349.00
2023-01-04T08:43:11.238Z,376.00
2023-01-04T08:44:10.416Z,433.00
2023-01-04T08:45:10.280Z,454.00
2023-01-04T08:46:10.253Z,485.00
2023-01-04T08:47:10.209Z,509.00
2023-01-04T08:48:10.211Z,511.00
2023-01-04T08:49:10.204Z,547.00
2023-01-04T08:50:11.161Z,573.00
2023-01-04T08:51:10.194Z,538.00
2023-01-04T08:52:10.136Z,481.00
2023-01-04T08:53:10.124Z,419.00
2023-01-04T08:54:10.173Z,389.00
2023-01-04T08:55:12.680Z,406.00
2023-01-04T08:56:10.090Z,365.00
2023-01-04T08:57:10.126Z,329.00
2023-01-04T08:58:10.065Z,277.00
2023-01-04T08:59:10.064Z,262.00
2023-01-04T09:00:10.165Z,259.00
2023-01-04T09:01:10.055Z,255.00
2023-01-04T09:02:10.134Z,273.00
2023-01-04T09:03:10.197Z,221.00
2023-01-04T09:04:10.139Z,191.00
2023-01-04T09:05:10.093Z,181.00
2023-01-04T09:06:10.000Z,178.00
2023-01-04T09:07:10.058Z,176.00
2023-01-04T09:08:09.965Z,218.00
2023-01-04T09:09:09.999Z,295.00
2023-01-04T09:10:09.970Z,242.00
2023-01-04T09:11:09.970Z,219.00
2023-01-04T09:12:09.925Z,356.00
2023-01-04T09:13:09.953Z,296.00
2023-01-04T09:14:09.948Z,322.00
2023-01-04T09:15:09.946Z,297.00
2023-01-04T09:16:09.935Z,327.00
2023-01-04T09:17:09.957Z,367.00
2023-01-04T09:18:31.321Z,450.00
2023-01-04T09:19:13.941Z,599.00
2023-01-04T09:20:10.869Z,579.00
2023-01-04T09:21:09.868Z,485.00
2023-01-04T09:22:09.863Z,594.00
2023-01-04T09:23:10.659Z,587.00
2023-01-04T09:24:09.829Z,617.00
2023-01-04T09:25:09.794Z,736.00
2023-01-04T09:26:09.971Z,497.00
2023-01-04T09:27:09.785Z,554.00
2023-01-04T09:28:09.787Z,516.00
2023-01-04T09:29:09.879Z,479.00
2023-01-04T09:30:09.726Z,567.00
2023-01-04T09:31:09.958Z,582.00
2023-01-04T09:32:16.100Z,461.00
2023-01-04T09:33:10.737Z,464.00
2023-01-04T09:34:15.288Z,477.00
2023-01-04T09:35:10.736Z,570.00
2023-01-04T09:36:09.685Z,520.00
2023-01-04T09:37:09.702Z,448.00
2023-01-04T09:38:09.679Z,553.00
2023-01-04T09:39:14.855Z,687.00
2023-01-04T09:40:10.740Z,625.00
2023-01-04T09:41:09.662Z,700.00
2023-01-04T09:42:09.640Z,730.00
2023-01-04T09:43:21.412Z,682.00
2023-01-04T09:44:10.616Z,595.00
2023-01-04T09:45:25.608Z,647.00
2023-01-04T09:46:10.731Z,429.00
2023-01-04T09:47:09.674Z,572.00
2023-01-04T09:48:09.603Z,654.00
2023-01-04T09:49:09.552Z,638.00
2023-01-04T09:50:09.536Z,544.00
2023-01-04T09:51:09.558Z,481.00
2023-01-04T09:52:09.617Z,368.00
2023-01-04T09:53:09.528Z,457.00
2023-01-04T09:54:09.531Z,546.00
2023-01-04T09:55:37.234Z,378.00
2023-01-04T09:56:10.535Z,416.00
2023-01-04T09:57:09.487Z,491.00
2023-01-04T09:58:09.445Z,417.00
2023-01-04T09:59:09.447Z,358.00
2023-01-04T10:00:09.484Z,497.00
2023-01-04T10:01:09.545Z,813.00
2023-01-04T10:02:09.688Z,689.00
2023-01-04T10:03:09.515Z,450.00
2023-01-04T10:04:09.476Z,625.00
2023-01-04T10:05:09.407Z,420.00
2023-01-04T10:06:09.470Z,663.00
2023-01-04T10:07:09.354Z,800.00
2023-01-04T10:08:09.344Z,758.00
2023-01-04T10:09:09.624Z,491.00
2023-01-04T10:10:09.384Z,618.00
2023-01-04T10:11:09.324Z,579.00
2023-01-04T10:12:09.347Z,497.00
2023-01-04T10:13:09.325Z,558.00
2023-01-04T10:14:09.314Z,475.00
2023-01-04T10:15:09.293Z,449.00
2023-01-04T10:16:09.380Z,437.00
2023-01-04T10:17:23.643Z,497.00
2023-01-04T10:19:51.466Z,379.00
2023-01-04T10:21:17.128Z,418.00
2023-01-04T10:22:10.296Z,377.00
2023-01-04T10:23:09.248Z,365.00
2023-01-04T10:24:09.206Z,297.00
2023-01-04T10:25:09.188Z,228.00
2023-01-04T10:26:09.180Z,345.00
2023-01-04T10:27:09.203Z,397.00
2023-01-04T10:28:09.152Z,313.00
2023-01-04T10:29:09.138Z,332.00
2023-01-04T10:30:09.192Z,405.00
2023-01-04T10:31:38.970Z,416.00
2023-01-04T10:32:10.158Z,391.00
2023-01-04T10:33:09.093Z,438.00
2023-01-04T10:34:12.704Z,596.00
2023-01-04T10:35:10.090Z,550.00
2023-01-04T10:36:09.132Z,442.00
2023-01-04T10:37:09.042Z,385.00
2023-01-04T10:38:09.164Z,413.00
2023-01-04T10:39:09.087Z,518.00
2023-01-04T10:40:09.055Z,425.00
2023-01-04T10:41:09.033Z,481.00
2023-01-04T10:42:09.073Z,431.00
2023-01-04T10:43:09.005Z,474.00
2023-01-04T10:44:10.716Z,436.00
2023-01-04T10:45:09.697Z,492.00
2023-01-04T10:46:09.133Z,479.00
2023-01-04T10:47:08.968Z,494.00
2023-01-04T10:48:09.067Z,491.00
2023-01-04T10:49:08.971Z,551.00
2023-01-04T10:50:09.086Z,418.00
2023-01-04T10:51:10.588Z,388.00
2023-01-04T10:52:09.076Z,432.00
2023-01-04T10:53:08.926Z,447.00
2023-01-04T10:54:09.159Z,478.00
2023-01-04T10:55:08.847Z,413.00
2023-01-04T10:56:25.650Z,371.00
2023-01-04T10:57:09.850Z,429.00
2023-01-04T10:58:08.872Z,422.00
2023-01-04T10:59:08.892Z,385.00
2023-01-04T11:00:08.836Z,383.00
2023-01-04T11:01:08.902Z,455.00
2023-01-04T11:02:08.916Z,459.00
2023-01-04T11:03:09.733Z,402.00
2023-01-04T11:04:08.817Z,345.00
2023-01-04T11:05:08.796Z,379.00
2023-01-04T11:06:08.812Z,329.00
2023-01-04T11:07:08.778Z,399.00
2023-01-04T11:08:08.757Z,357.00
2023-01-04T11:09:08.740Z,416.00
2023-01-04T11:10:08.758Z,345.00
2023-01-04T11:11:08.755Z,421.00
2023-01-04T11:12:08.680Z,432.00
2023-01-04T11:13:08.691Z,452.00
2023-01-04T11:14:08.768Z,489.00
2023-01-04T11:15:08.634Z,491.00
2023-01-04T11:16:08.770Z,509.00
2023-01-04T11:17:08.624Z,424.00
2023-01-04T11:18:08.624Z,459.00
2023-01-04T11:19:08.629Z,458.00
2023-01-04T11:20:08.628Z,507.00
2023-01-04T11:21:08.617Z,441.00
2023-01-04T11:22:08.580Z,490.00
2023-01-04T11:23:08.619Z,487.00
2023-01-04T11:24:30.879Z,538.00
2023-01-04T11:25:35.050Z,480.00
2023-01-04T11:26:09.541Z,475.00
2023-01-04T11:27:08.525Z,462.00
2023-01-04T11:28:08.593Z,488.00
2023-01-04T11:29:08.551Z,520.00
2023-01-04T11:30:08.527Z,523.00
2023-01-04T11:31:08.515Z,456.00
2023-01-04T11:32:08.511Z,466.00
2023-01-04T11:33:08.514Z,461.00
2023-01-04T11:34:08.491Z,480.00
2023-01-04T11:35:08.468Z,411.00
2023-01-04T11:36:08.523Z,399.00
2023-01-04T11:37:08.434Z,457.00
2023-01-04T11:38:08.509Z,514.00
2023-01-04T11:39:08.405Z,547.00
2023-01-04T11:40:08.489Z,440.00
2023-01-04T11:41:08.408Z,386.00
2023-01-04T11:42:08.385Z,423.00
2023-01-04T11:43:08.397Z,488.00
2023-01-04T11:44:08.350Z,540.00
2023-01-04T11:45:08.353Z,593.00
2023-01-04T11:46:08.435Z,663.00
2023-01-04T11:47:08.323Z,588.00
2023-01-04T11:48:14.440Z,607.00
2023-01-04T11:49:09.312Z,621.00
2023-01-04T11:50:08.891Z,634.00
2023-01-04T11:51:12.414Z,547.00
2023-01-04T11:52:09.325Z,497.00
2023-01-04T11:53:08.269Z,490.00
2023-01-04T11:54:08.255Z,506.00
2023-01-04T11:55:08.236Z,463.00
2023-01-04T11:56:08.236Z,434.00
2023-01-04T11:57:11.813Z,458.00
2023-01-04T11:58:08.217Z,647.00
2023-01-04T11:59:08.195Z,659.00
2023-01-04T12:00:08.341Z,627.00
2023-01-04T12:01:08.230Z,659.00
2023-01-04T12:02:08.343Z,733.00
2023-01-04T12:03:08.197Z,708.00
2023-01-04T12:04:08.148Z,622.00
2023-01-04T12:05:08.153Z,643.00
2023-01-04T12:06:08.107Z,591.00
2023-01-04T12:07:08.123Z,564.00
2023-01-04T12:08:08.150Z,528.00
2023-01-04T12:09:08.138Z,441.00
2023-01-04T12:10:08.085Z,461.00
2023-01-04T12:11:08.052Z,480.00
2023-01-04T12:12:13.918Z,447.00
2023-01-04T12:13:09.040Z,459.00
2023-01-04T12:14:08.049Z,420.00
2023-01-04T12:15:08.115Z,517.00
2023-01-04T12:16:08.063Z,629.00
2023-01-04T12:17:08.032Z,505.00
2023-01-04T12:18:08.039Z,541.00
2023-01-04T12:19:08.014Z,591.00
2023-01-04T12:20:13.209Z,573.00
2023-01-04T12:21:08.950Z,563.00
2023-01-04T12:22:07.945Z,524.00
2023-01-04T12:23:07.996Z,639.00
2023-01-04T12:24:07.924Z,605.00
2023-01-04T12:25:08.009Z,633.00
2023-01-04T12:26:07.933Z,593.00
2023-01-04T12:27:07.900Z,611.00
2023-01-04T12:28:07.908Z,510.00
2023-01-04T12:29:07.867Z,608.00
2023-01-04T12:30:07.974Z,622.00
2023-01-04T12:31:08.990Z,640.00
2023-01-04T12:32:07.869Z,692.00
2023-01-04T12:33:07.876Z,668.00
2023-01-04T12:34:07.825Z,743.00
2023-01-04T12:35:07.818Z,721.00
2023-01-04T12:36:07.854Z,739.00
2023-01-04T12:37:07.888Z,667.00
2023-01-04T12:38:07.798Z,628.00
2023-01-04T12:39:07.865Z,679.00
2023-01-04T12:40:07.795Z,667.00
2023-01-04T12:41:07.750Z,686.00
2023-01-04T12:42:07.734Z,595.00
2023-01-04T12:43:07.761Z,536.00
2023-01-04T12:44:07.761Z,720.00
2023-01-04T12:45:07.754Z,736.00
2023-01-04T12:46:07.805Z,951.00
2023-01-04T12:47:07.700Z,769.00
2023-01-04T12:48:07.723Z,770.00
2023-01-04T12:49:07.665Z,734.00
2023-01-04T12:50:07.662Z,656.00
2023-01-04T12:51:30.134Z,595.00
2023-01-04T12:53:29.493Z,552.00
2023-01-04T12:54:08.617Z,508.00
2023-01-04T12:55:07.622Z,520.00
2023-01-04T12:56:07.732Z,487.00
2023-01-04T12:57:07.591Z,490.00
2023-01-04T12:58:07.550Z,554.00
2023-01-04T13:00:08.564Z,425.00